sensor_id;sensor_type;location;lat;lon;timestamp;P1;durP1;ratioP1;P2;durP2;ratioP2
75408;SDS011;63979;55.644;37.734;2023-08-12T00:00:16;13.93;;;10.15;;
75408;SDS011;63979;55.644;37.734;2023-08-12T00:05:17;12.82;;;10.15;;
75408;SDS011;63979;55.644;37.734;2023-08-12T00:15:19;10.77;;;9.30;;
75408;SDS011;63979;55.644;37.734;2023-08-12T00:20:20;10.02;;;8.98;;
75408;SDS011;63979;55.644;37.734;2023-08-12T00:30:22;12.95;;;9.48;;
75408;SDS011;63979;55.644;37.734;2023-08-12T00:40:25;11.10;;;8.57;;
75408;SDS011;63979;55.644;37.734;2023-08-12T00:45:27;11.68;;;9.50;;
75408;SDS011;63979;55.644;37.734;2023-08-12T00:50:28;10.43;;;8.63;;
75408;SDS011;63979;55.644;37.734;2023-08-12T00:55:29;12.35;;;8.25;;
75408;SDS011;63979;55.644;37.734;2023-08-12T01:05:32;9.65;;;8.30;;
75408;SDS011;63979;55.644;37.734;2023-08-12T01:10:35;10.50;;;8.85;;
75408;SDS011;63979;55.644;37.734;2023-08-12T01:15:40;14.13;;;9.20;;
75408;SDS011;63979;55.644;37.734;2023-08-12T01:20:44;14.43;;;8.98;;
75408;SDS011;63979;55.644;37.734;2023-08-12T01:25:46;11.80;;;8.85;;
75408;SDS011;63979;55.644;37.734;2023-08-12T01:36:09;12.40;;;9.32;;
75408;SDS011;63979;55.644;37.734;2023-08-12T01:41:16;12.52;;;9.38;;
75408;SDS011;63979;55.644;37.734;2023-08-12T01:46:21;11.85;;;9.15;;
75408;SDS011;63979;55.644;37.734;2023-08-12T01:51:22;11.00;;;9.70;;
75408;SDS011;63979;55.644;37.734;2023-08-12T01:56:23;11.52;;;8.95;;
75408;SDS011;63979;55.644;37.734;2023-08-12T02:06:25;13.30;;;9.30;;
75408;SDS011;63979;55.644;37.734;2023-08-12T02:11:26;11.90;;;9.45;;
75408;SDS011;63979;55.644;37.734;2023-08-12T02:16:27;12.77;;;8.70;;
75408;SDS011;63979;55.644;37.734;2023-08-12T02:21:48;11.30;;;8.32;;
75408;SDS011;63979;55.644;37.734;2023-08-12T02:26:49;12.10;;;9.82;;
75408;SDS011;63979;55.644;37.734;2023-08-12T02:31:50;14.75;;;8.75;;
75408;SDS011;63979;55.644;37.734;2023-08-12T02:41:52;14.77;;;9.15;;
75408;SDS011;63979;55.644;37.734;2023-08-12T02:46:53;11.43;;;8.45;;
75408;SDS011;63979;55.644;37.734;2023-08-12T02:51:54;12.07;;;8.73;;
75408;SDS011;63979;55.644;37.734;2023-08-12T03:01:56;10.68;;;7.70;;
75408;SDS011;63979;55.644;37.734;2023-08-12T03:06:57;10.77;;;7.88;;
75408;SDS011;63979;55.644;37.734;2023-08-12T03:11:58;11.43;;;8.93;;
75408;SDS011;63979;55.644;37.734;2023-08-12T03:17:02;15.55;;;9.38;;
75408;SDS011;63979;55.644;37.734;2023-08-12T03:22:04;11.18;;;9.25;;
75408;SDS011;63979;55.644;37.734;2023-08-12T03:32:05;13.25;;;9.23;;
75408;SDS011;63979;55.644;37.734;2023-08-12T03:42:07;13.43;;;9.15;;
75408;SDS011;63979;55.644;37.734;2023-08-12T03:47:09;11.82;;;8.80;;
75408;SDS011;63979;55.644;37.734;2023-08-12T03:52:10;13.52;;;8.80;;
75408;SDS011;63979;55.644;37.734;2023-08-12T03:57:11;11.60;;;8.70;;
75408;SDS011;63979;55.644;37.734;2023-08-12T04:02:12;10.18;;;7.75;;
75408;SDS011;63979;55.644;37.734;2023-08-12T04:07:13;10.48;;;8.35;;
75408;SDS011;63979;55.644;37.734;2023-08-12T04:12:14;12.25;;;8.13;;
75408;SDS011;63979;55.644;37.734;2023-08-12T04:17:15;9.82;;;7.75;;
75408;SDS011;63979;55.644;37.734;2023-08-12T04:27:17;13.15;;;7.78;;
75408;SDS011;63979;55.644;37.734;2023-08-12T04:32:18;11.60;;;8.30;;
75408;SDS011;63979;55.644;37.734;2023-08-12T04:42:20;13.25;;;7.32;;
75408;SDS011;63979;55.644;37.734;2023-08-12T04:47:21;8.68;;;7.40;;
75408;SDS011;63979;55.644;37.734;2023-08-12T04:57:23;12.80;;;8.38;;
75408;SDS011;63979;55.644;37.734;2023-08-12T05:02:24;12.25;;;8.70;;
75408;SDS011;63979;55.644;37.734;2023-08-12T05:07:26;16.20;;;7.85;;
75408;SDS011;63979;55.644;37.734;2023-08-12T05:12:27;9.40;;;7.15;;
75408;SDS011;63979;55.644;37.734;2023-08-12T05:22:29;13.30;;;8.27;;
75408;SDS011;63979;55.644;37.734;2023-08-12T05:32:30;13.48;;;8.15;;
75408;SDS011;63979;55.644;37.734;2023-08-12T05:37:31;15.88;;;8.88;;
75408;SDS011;63979;55.644;37.734;2023-08-12T05:47:34;8.82;;;7.47;;
75408;SDS011;63979;55.644;37.734;2023-08-12T05:52:35;9.98;;;7.65;;
75408;SDS011;63979;55.644;37.734;2023-08-12T05:57:37;9.18;;;7.60;;
75408;SDS011;63979;55.644;37.734;2023-08-12T06:07:39;11.75;;;7.65;;
75408;SDS011;63979;55.644;37.734;2023-08-12T06:17:40;9.73;;;8.20;;
75408;SDS011;63979;55.644;37.734;2023-08-12T06:27:42;12.68;;;7.65;;
75408;SDS011;63979;55.644;37.734;2023-08-12T06:32:44;11.98;;;8.82;;
75408;SDS011;63979;55.644;37.734;2023-08-12T06:37:45;15.25;;;6.93;;
75408;SDS011;63979;55.644;37.734;2023-08-12T06:42:46;11.77;;;7.60;;
75408;SDS011;63979;55.644;37.734;2023-08-12T06:47:47;10.60;;;7.20;;
75408;SDS011;63979;55.644;37.734;2023-08-12T06:52:48;7.88;;;7.13;;
75408;SDS011;63979;55.644;37.734;2023-08-12T06:57:49;8.88;;;6.75;;
75408;SDS011;63979;55.644;37.734;2023-08-12T07:02:50;11.85;;;7.47;;
75408;SDS011;63979;55.644;37.734;2023-08-12T07:07:52;10.23;;;7.43;;
75408;SDS011;63979;55.644;37.734;2023-08-12T07:12:53;11.30;;;8.05;;
75408;SDS011;63979;55.644;37.734;2023-08-12T07:17:54;7.95;;;6.40;;
75408;SDS011;63979;55.644;37.734;2023-08-12T07:22:55;9.40;;;6.57;;
75408;SDS011;63979;55.644;37.734;2023-08-12T07:27:57;9.90;;;7.85;;
75408;SDS011;63979;55.644;37.734;2023-08-12T07:32:58;11.48;;;7.35;;
75408;SDS011;63979;55.644;37.734;2023-08-12T07:37:59;10.18;;;7.72;;
75408;SDS011;63979;55.644;37.734;2023-08-12T07:43:00;14.60;;;7.78;;
75408;SDS011;63979;55.644;37.734;2023-08-12T07:48:01;11.05;;;8.30;;
75408;SDS011;63979;55.644;37.734;2023-08-12T07:53:02;11.27;;;7.10;;
75408;SDS011;63979;55.644;37.734;2023-08-12T07:58:03;13.88;;;8.68;;
75408;SDS011;63979;55.644;37.734;2023-08-12T08:03:05;9.55;;;7.57;;
75408;SDS011;63979;55.644;37.734;2023-08-12T08:08:06;11.55;;;8.10;;
75408;SDS011;63979;55.644;37.734;2023-08-12T08:13:07;11.27;;;9.57;;
75408;SDS011;63979;55.644;37.734;2023-08-12T08:18:08;10.55;;;7.53;;
75408;SDS011;63979;55.644;37.734;2023-08-12T08:23:08;11.10;;;8.23;;
75408;SDS011;63979;55.644;37.734;2023-08-12T08:28:10;13.15;;;7.80;;
75408;SDS011;63979;55.644;37.734;2023-08-12T08:33:11;10.15;;;8.77;;
75408;SDS011;63979;55.644;37.734;2023-08-12T08:38:12;12.43;;;7.95;;
75408;SDS011;63979;55.644;37.734;2023-08-12T08:43:14;11.65;;;8.55;;
75408;SDS011;63979;55.644;37.734;2023-08-12T08:48:20;13.15;;;8.32;;
75408;SDS011;63979;55.644;37.734;2023-08-12T08:53:21;12.50;;;9.00;;
75408;SDS011;63979;55.644;37.734;2023-08-12T08:58:22;13.55;;;10.82;;
75408;SDS011;63979;55.644;37.734;2023-08-12T09:03:24;14.18;;;9.35;;
75408;SDS011;63979;55.644;37.734;2023-08-12T09:08:25;16.23;;;8.25;;
75408;SDS011;63979;55.644;37.734;2023-08-12T09:13:29;10.45;;;8.80;;
75408;SDS011;63979;55.644;37.734;2023-08-12T09:18:31;14.77;;;9.05;;
75408;SDS011;63979;55.644;37.734;2023-08-12T09:23:38;10.32;;;8.07;;
75408;SDS011;63979;55.644;37.734;2023-08-12T09:28:41;10.43;;;8.35;;
75408;SDS011;63979;55.644;37.734;2023-08-12T09:33:43;10.95;;;8.82;;
75408;SDS011;63979;55.644;37.734;2023-08-12T09:38:44;11.65;;;8.82;;
75408;SDS011;63979;55.644;37.734;2023-08-12T09:43:46;12.00;;;9.35;;
75408;SDS011;63979;55.644;37.734;2023-08-12T09:48:47;11.02;;;8.00;;
75408;SDS011;63979;55.644;37.734;2023-08-12T09:53:51;18.33;;;10.25;;
75408;SDS011;63979;55.644;37.734;2023-08-12T09:58:52;13.48;;;9.88;;
75408;SDS011;63979;55.644;37.734;2023-08-12T10:03:56;17.85;;;10.32;;
75408;SDS011;63979;55.644;37.734;2023-08-12T10:08:56;13.48;;;10.05;;
75408;SDS011;63979;55.644;37.734;2023-08-12T10:13:58;12.60;;;10.40;;
75408;SDS011;63979;55.644;37.734;2023-08-12T10:19:00;13.25;;;9.95;;
75408;SDS011;63979;55.644;37.734;2023-08-12T10:24:05;14.60;;;9.77;;
75408;SDS011;63979;55.644;37.734;2023-08-12T10:29:07;14.10;;;10.20;;
75408;SDS011;63979;55.644;37.734;2023-08-12T10:34:08;11.23;;;8.98;;
75408;SDS011;63979;55.644;37.734;2023-08-12T10:39:24;13.93;;;10.25;;
75408;SDS011;63979;55.644;37.734;2023-08-12T10:44:50;18.15;;;12.60;;
75408;SDS011;63979;55.644;37.734;2023-08-12T10:49:52;16.83;;;11.25;;
75408;SDS011;63979;55.644;37.734;2023-08-12T10:54:53;15.00;;;10.65;;
75408;SDS011;63979;55.644;37.734;2023-08-12T10:59:56;15.63;;;10.65;;
75408;SDS011;63979;55.644;37.734;2023-08-12T11:05:01;12.15;;;9.48;;
75408;SDS011;63979;55.644;37.734;2023-08-12T11:10:18;11.45;;;8.93;;
75408;SDS011;63979;55.644;37.734;2023-08-12T11:15:36;11.60;;;9.23;;
75408;SDS011;63979;55.644;37.734;2023-08-12T11:20:42;13.40;;;9.52;;
75408;SDS011;63979;55.644;37.734;2023-08-12T11:25:43;12.52;;;9.98;;
75408;SDS011;63979;55.644;37.734;2023-08-12T11:30:50;16.15;;;10.73;;
75408;SDS011;63979;55.644;37.734;2023-08-12T11:35:52;13.30;;;10.77;;
75408;SDS011;63979;55.644;37.734;2023-08-12T11:40:53;13.45;;;10.07;;
75408;SDS011;63979;55.644;37.734;2023-08-12T11:45:55;13.73;;;9.88;;
75408;SDS011;63979;55.644;37.734;2023-08-12T11:50:56;14.23;;;10.77;;
75408;SDS011;63979;55.644;37.734;2023-08-12T11:55:58;15.60;;;9.93;;
75408;SDS011;63979;55.644;37.734;2023-08-12T12:06:00;18.38;;;11.20;;
75408;SDS011;63979;55.644;37.734;2023-08-12T12:11:05;15.18;;;10.45;;
75408;SDS011;63979;55.644;37.734;2023-08-12T12:16:09;12.60;;;9.43;;
75408;SDS011;63979;55.644;37.734;2023-08-12T12:21:11;15.85;;;10.38;;
75408;SDS011;63979;55.644;37.734;2023-08-12T12:26:20;14.25;;;9.23;;
75408;SDS011;63979;55.644;37.734;2023-08-12T12:31:23;11.82;;;8.40;;
75408;SDS011;63979;55.644;37.734;2023-08-12T12:41:26;12.25;;;8.98;;
75408;SDS011;63979;55.644;37.734;2023-08-12T12:46:26;11.98;;;8.70;;
75408;SDS011;63979;55.644;37.734;2023-08-12T12:51:27;9.50;;;7.40;;
75408;SDS011;63979;55.644;37.734;2023-08-12T12:56:28;9.65;;;7.90;;
75408;SDS011;63979;55.644;37.734;2023-08-12T13:06:30;12.18;;;7.75;;
75408;SDS011;63979;55.644;37.734;2023-08-12T13:11:32;10.32;;;7.22;;
75408;SDS011;63979;55.644;37.734;2023-08-12T13:16:35;10.18;;;7.50;;
75408;SDS011;63979;55.644;37.734;2023-08-12T13:21:36;13.23;;;8.60;;
75408;SDS011;63979;55.644;37.734;2023-08-12T13:26:37;15.00;;;8.63;;
75408;SDS011;63979;55.644;37.734;2023-08-12T13:31:38;13.70;;;9.30;;
75408;SDS011;63979;55.644;37.734;2023-08-12T13:36:40;12.35;;;8.82;;
75408;SDS011;63979;55.644;37.734;2023-08-12T13:41:41;11.70;;;8.52;;
75408;SDS011;63979;55.644;37.734;2023-08-12T13:46:44;13.82;;;8.52;;
75408;SDS011;63979;55.644;37.734;2023-08-12T13:51:45;10.57;;;8.82;;
75408;SDS011;63979;55.644;37.734;2023-08-12T13:56:46;12.32;;;9.40;;
75408;SDS011;63979;55.644;37.734;2023-08-12T14:06:48;17.88;;;11.82;;
75408;SDS011;63979;55.644;37.734;2023-08-12T14:11:49;16.23;;;10.38;;
75408;SDS011;63979;55.644;37.734;2023-08-12T14:16:50;11.93;;;9.77;;
75408;SDS011;63979;55.644;37.734;2023-08-12T14:21:51;16.40;;;9.85;;
75408;SDS011;63979;55.644;37.734;2023-08-12T14:31:53;11.85;;;8.25;;
75408;SDS011;63979;55.644;37.734;2023-08-12T14:41:56;11.40;;;8.02;;
75408;SDS011;63979;55.644;37.734;2023-08-12T14:46:57;11.48;;;8.15;;
75408;SDS011;63979;55.644;37.734;2023-08-12T14:51:59;13.65;;;8.80;;
75408;SDS011;63979;55.644;37.734;2023-08-12T14:57:00;10.00;;;7.30;;
75408;SDS011;63979;55.644;37.734;2023-08-12T15:07:02;10.25;;;7.15;;
75408;SDS011;63979;55.644;37.734;2023-08-12T15:17:04;9.68;;;6.43;;
75408;SDS011;63979;55.644;37.734;2023-08-12T15:22:05;9.98;;;6.20;;
75408;SDS011;63979;55.644;37.734;2023-08-12T15:32:07;8.57;;;5.97;;
75408;SDS011;63979;55.644;37.734;2023-08-12T15:42:09;10.32;;;7.00;;
75408;SDS011;63979;55.644;37.734;2023-08-12T15:47:10;10.88;;;7.57;;
75408;SDS011;63979;55.644;37.734;2023-08-12T15:52:11;10.88;;;7.50;;
75408;SDS011;63979;55.644;37.734;2023-08-12T16:02:13;10.27;;;7.50;;
75408;SDS011;63979;55.644;37.734;2023-08-12T16:12:15;15.00;;;8.60;;
75408;SDS011;63979;55.644;37.734;2023-08-12T16:17:19;10.38;;;8.00;;
75408;SDS011;63979;55.644;37.734;2023-08-12T16:27:21;13.20;;;8.95;;
75408;SDS011;63979;55.644;37.734;2023-08-12T16:32:22;11.80;;;8.70;;
75408;SDS011;63979;55.644;37.734;2023-08-12T16:37:23;14.93;;;9.32;;
75408;SDS011;63979;55.644;37.734;2023-08-12T16:42:24;11.77;;;8.15;;
75408;SDS011;63979;55.644;37.734;2023-08-12T16:47:26;10.95;;;7.53;;
75408;SDS011;63979;55.644;37.734;2023-08-12T16:52:27;13.82;;;8.43;;
75408;SDS011;63979;55.644;37.734;2023-08-12T16:57:28;11.77;;;8.15;;
75408;SDS011;63979;55.644;37.734;2023-08-12T17:02:29;9.10;;;7.18;;
75408;SDS011;63979;55.644;37.734;2023-08-12T17:07:31;12.95;;;8.43;;
75408;SDS011;63979;55.644;37.734;2023-08-12T17:17:33;11.02;;;8.60;;
75408;SDS011;63979;55.644;37.734;2023-08-12T17:22:34;11.73;;;8.80;;
75408;SDS011;63979;55.644;37.734;2023-08-12T17:27:35;11.65;;;8.48;;
75408;SDS011;63979;55.644;37.734;2023-08-12T17:32:36;10.48;;;8.30;;
75408;SDS011;63979;55.644;37.734;2023-08-12T17:37:37;11.32;;;7.65;;
75408;SDS011;63979;55.644;37.734;2023-08-12T17:42:38;11.18;;;8.48;;
75408;SDS011;63979;55.644;37.734;2023-08-12T17:47:39;12.25;;;8.93;;
75408;SDS011;63979;55.644;37.734;2023-08-12T17:52:54;11.35;;;8.38;;
75408;SDS011;63979;55.644;37.734;2023-08-12T17:57:55;12.13;;;8.35;;
75408;SDS011;63979;55.644;37.734;2023-08-12T18:02:56;14.63;;;8.65;;
75408;SDS011;63979;55.644;37.734;2023-08-12T18:07:57;12.32;;;8.80;;
75408;SDS011;63979;55.644;37.734;2023-08-12T18:12:58;13.23;;;8.98;;
75408;SDS011;63979;55.644;37.734;2023-08-12T18:17:59;12.85;;;10.10;;
75408;SDS011;63979;55.644;37.734;2023-08-12T18:23:02;10.80;;;8.75;;
75408;SDS011;63979;55.644;37.734;2023-08-12T18:28:04;10.52;;;8.23;;
75408;SDS011;63979;55.644;37.734;2023-08-12T18:33:05;14.30;;;8.20;;
75408;SDS011;63979;55.644;37.734;2023-08-12T18:38:06;15.93;;;9.40;;
75408;SDS011;63979;55.644;37.734;2023-08-12T18:43:08;13.68;;;9.40;;
75408;SDS011;63979;55.644;37.734;2023-08-12T18:48:09;10.75;;;8.77;;
75408;SDS011;63979;55.644;37.734;2023-08-12T18:53:10;12.80;;;9.30;;
75408;SDS011;63979;55.644;37.734;2023-08-12T18:58:11;11.85;;;9.05;;
75408;SDS011;63979;55.644;37.734;2023-08-12T19:03:12;14.82;;;10.50;;
75408;SDS011;63979;55.644;37.734;2023-08-12T19:08:13;12.70;;;9.55;;
75408;SDS011;63979;55.644;37.734;2023-08-12T19:13:15;14.77;;;9.75;;
75408;SDS011;63979;55.644;37.734;2023-08-12T19:18:16;12.57;;;8.82;;
75408;SDS011;63979;55.644;37.734;2023-08-12T19:23:17;16.15;;;10.20;;
75408;SDS011;63979;55.644;37.734;2023-08-12T19:28:19;13.82;;;10.43;;
75408;SDS011;63979;55.644;37.734;2023-08-12T19:38:21;12.65;;;9.57;;
75408;SDS011;63979;55.644;37.734;2023-08-12T19:43:22;15.10;;;9.98;;
75408;SDS011;63979;55.644;37.734;2023-08-12T19:48:23;13.48;;;9.52;;
75408;SDS011;63979;55.644;37.734;2023-08-12T19:53:24;12.40;;;10.20;;
75408;SDS011;63979;55.644;37.734;2023-08-12T19:58:26;18.23;;;9.25;;
75408;SDS011;63979;55.644;37.734;2023-08-12T20:08:27;13.40;;;9.38;;
75408;SDS011;63979;55.644;37.734;2023-08-12T20:13:30;16.25;;;10.48;;
75408;SDS011;63979;55.644;37.734;2023-08-12T20:18:31;14.88;;;9.93;;
75408;SDS011;63979;55.644;37.734;2023-08-12T20:23:32;15.60;;;9.65;;
75408;SDS011;63979;55.644;37.734;2023-08-12T20:33:34;11.15;;;8.10;;
75408;SDS011;63979;55.644;37.734;2023-08-12T20:38:35;16.33;;;10.15;;
75408;SDS011;63979;55.644;37.734;2023-08-12T20:43:36;16.40;;;9.93;;
75408;SDS011;63979;55.644;37.734;2023-08-12T20:48:37;13.00;;;9.85;;
75408;SDS011;63979;55.644;37.734;2023-08-12T20:53:37;13.38;;;9.05;;
75408;SDS011;63979;55.644;37.734;2023-08-12T20:58:38;12.00;;;8.80;;
75408;SDS011;63979;55.644;37.734;2023-08-12T21:03:39;14.60;;;9.65;;
75408;SDS011;63979;55.644;37.734;2023-08-12T21:08:40;14.98;;;9.32;;
75408;SDS011;63979;55.644;37.734;2023-08-12T21:13:41;12.85;;;9.40;;
75408;SDS011;63979;55.644;37.734;2023-08-12T21:18:42;19.67;;;10.05;;
75408;SDS011;63979;55.644;37.734;2023-08-12T21:23:43;21.52;;;9.80;;
75408;SDS011;63979;55.644;37.734;2023-08-12T21:28:44;14.93;;;10.00;;
75408;SDS011;63979;55.644;37.734;2023-08-12T21:33:45;11.63;;;8.30;;
75408;SDS011;63979;55.644;37.734;2023-08-12T21:38:47;18.23;;;9.98;;
75408;SDS011;63979;55.644;37.734;2023-08-12T21:48:48;14.57;;;9.02;;
75408;SDS011;63979;55.644;37.734;2023-08-12T21:53:50;13.18;;;8.60;;
75408;SDS011;63979;55.644;37.734;2023-08-12T21:58:51;15.40;;;10.80;;
75408;SDS011;63979;55.644;37.734;2023-08-12T22:03:52;14.52;;;8.80;;
75408;SDS011;63979;55.644;37.734;2023-08-12T22:08:53;11.82;;;9.55;;
75408;SDS011;63979;55.644;37.734;2023-08-12T22:18:55;12.73;;;8.77;;
75408;SDS011;63979;55.644;37.734;2023-08-12T22:23:57;12.18;;;9.52;;
75408;SDS011;63979;55.644;37.734;2023-08-12T22:28:58;13.70;;;9.93;;
75408;SDS011;63979;55.644;37.734;2023-08-12T22:33:59;14.30;;;9.23;;
75408;SDS011;63979;55.644;37.734;2023-08-12T22:39:01;17.73;;;11.52;;
75408;SDS011;63979;55.644;37.734;2023-08-12T22:44:05;13.70;;;10.27;;
75408;SDS011;63979;55.644;37.734;2023-08-12T22:54:06;13.60;;;9.30;;
75408;SDS011;63979;55.644;37.734;2023-08-12T22:59:08;12.15;;;9.35;;
75408;SDS011;63979;55.644;37.734;2023-08-12T23:04:08;12.32;;;9.10;;
75408;SDS011;63979;55.644;37.734;2023-08-12T23:09:09;14.30;;;9.40;;
75408;SDS011;63979;55.644;37.734;2023-08-12T23:14:10;11.18;;;8.85;;
75408;SDS011;63979;55.644;37.734;2023-08-12T23:19:12;17.70;;;9.98;;
75408;SDS011;63979;55.644;37.734;2023-08-12T23:29:14;15.38;;;10.70;;
75408;SDS011;63979;55.644;37.734;2023-08-12T23:34:15;15.32;;;10.85;;
75408;SDS011;63979;55.644;37.734;2023-08-12T23:39:16;15.02;;;11.13;;
75408;SDS011;63979;55.644;37.734;2023-08-12T23:44:18;14.23;;;9.88;;
75408;SDS011;63979;55.644;37.734;2023-08-12T23:49:19;12.32;;;9.82;;
75408;SDS011;63979;55.644;37.734;2023-08-12T23:54:20;14.48;;;10.68;;
75408;SDS011;63979;55.644;37.734;2023-08-12T23:59:21;14.30;;;10.02;;
